createdAt,value
2022-12-02T00:01:53.289Z,5.23
2022-12-02T00:04:23.568Z,5.13
2022-12-02T00:06:53.612Z,4.96
2022-12-02T00:09:31.353Z,5.02
2022-12-02T00:12:02.325Z,5.05
2022-12-02T00:14:34.610Z,5.08
2022-12-02T00:17:02.498Z,5.03
2022-12-02T00:19:30.356Z,5.18
2022-12-02T00:21:58.337Z,5.07
2022-12-02T00:24:26.199Z,5.09
2022-12-02T00:26:54.131Z,5.03
2022-12-02T00:29:22.081Z,5.03
2022-12-02T00:31:49.997Z,5.01
2022-12-02T00:34:17.842Z,5.15
2022-12-02T00:36:45.802Z,5.18
2022-12-02T00:39:13.865Z,5.20
2022-12-02T00:41:41.857Z,5.18
2022-12-02T00:44:28.095Z,5.14
2022-12-02T00:46:56.066Z,5.15
2022-12-02T00:49:23.999Z,5.16
2022-12-02T00:51:51.868Z,5.13
2022-12-02T00:54:19.838Z,5.05
2022-12-02T00:56:47.885Z,5.18
2022-12-02T00:59:15.745Z,5.10
2022-12-02T01:01:45.371Z,5.13
2022-12-02T01:04:13.539Z,5.10
2022-12-02T01:06:41.437Z,5.11
2022-12-02T01:09:10.043Z,5.07
2022-12-02T01:11:37.906Z,5.11
2022-12-02T01:14:05.887Z,5.03
2022-12-02T01:16:33.867Z,4.80
2022-12-02T01:19:01.881Z,4.68
2022-12-02T01:21:29.888Z,4.80
2022-12-02T01:23:57.770Z,4.93
2022-12-02T01:26:25.741Z,4.86
2022-12-02T01:28:53.790Z,4.90
2022-12-02T01:31:21.943Z,5.02
2022-12-02T01:33:49.922Z,4.96
2022-12-02T01:36:17.787Z,4.90
2022-12-02T01:38:45.793Z,4.93
2022-12-02T01:41:13.795Z,4.88
2022-12-02T01:43:43.639Z,4.87
2022-12-02T01:46:12.280Z,4.90
2022-12-02T01:48:40.331Z,4.91
2022-12-02T01:51:08.726Z,4.87
2022-12-02T01:53:37.345Z,4.97
2022-12-02T01:56:05.682Z,5.08
2022-12-02T01:58:33.710Z,5.11
2022-12-02T02:01:01.690Z,5.16
2022-12-02T02:03:29.719Z,5.18
2022-12-02T02:05:58.825Z,5.12
2022-12-02T02:08:26.566Z,5.09
2022-12-02T02:10:54.227Z,5.15
2022-12-02T02:13:22.681Z,5.16
2022-12-02T02:15:50.886Z,5.17
2022-12-02T02:18:18.772Z,5.19
2022-12-02T02:20:47.298Z,5.19
2022-12-02T02:23:22.247Z,5.28
2022-12-02T02:25:55.240Z,5.26
2022-12-02T02:28:28.160Z,5.24
2022-12-02T02:30:58.036Z,5.25
2022-12-02T02:33:34.081Z,5.15
2022-12-02T02:36:04.187Z,5.29
2022-12-02T02:38:33.006Z,5.28
2022-12-02T02:41:02.099Z,5.27
2022-12-02T02:43:31.741Z,5.17
2022-12-02T02:46:01.547Z,5.03
2022-12-02T02:48:36.765Z,5.05
2022-12-02T02:51:05.886Z,5.13
2022-12-02T02:53:36.096Z,5.18
2022-12-02T02:56:05.897Z,5.24
2022-12-02T03:01:31.765Z,5.25
2022-12-02T03:04:09.952Z,5.21
2022-12-02T03:06:41.128Z,5.22
2022-12-02T03:09:12.795Z,5.19
2022-12-02T03:11:42.833Z,5.30
2022-12-02T03:14:15.824Z,5.28
2022-12-02T03:16:46.284Z,5.23
2022-12-02T03:19:14.619Z,5.35
2022-12-02T03:21:42.834Z,5.30
2022-12-02T03:24:11.331Z,5.36
2022-12-02T03:26:40.711Z,5.34
2022-12-02T03:29:27.751Z,5.29
2022-12-02T03:31:56.416Z,5.38
2022-12-02T03:34:24.666Z,5.30
2022-12-02T03:36:53.519Z,5.24
2022-12-02T03:39:40.193Z,5.19
2022-12-02T03:42:08.392Z,5.15
2022-12-02T03:44:37.163Z,5.08
2022-12-02T03:47:05.275Z,5.05
2022-12-02T03:49:34.973Z,5.08
2022-12-02T03:52:03.069Z,5.15
2022-12-02T03:54:32.075Z,5.11
2022-12-02T03:57:00.089Z,5.17
2022-12-02T03:59:30.472Z,5.13
2022-12-02T04:01:58.518Z,5.05
2022-12-02T04:04:27.801Z,5.04
2022-12-02T04:06:55.561Z,5.14
2022-12-02T04:09:23.234Z,5.07
2022-12-02T04:11:50.938Z,5.04
2022-12-02T04:14:18.711Z,4.84
2022-12-02T04:16:46.665Z,4.85
2022-12-02T04:19:15.643Z,4.89
2022-12-02T04:21:43.511Z,4.88
2022-12-02T04:24:11.296Z,4.85
2022-12-02T04:26:43.578Z,4.85
2022-12-02T04:29:12.323Z,4.81
2022-12-02T04:31:40.475Z,4.77
2022-12-02T04:34:08.427Z,4.84
2022-12-02T04:36:36.310Z,4.82
2022-12-02T04:39:04.809Z,4.84
2022-12-02T04:41:33.183Z,4.87
2022-12-02T04:44:01.039Z,4.82
2022-12-02T04:46:29.146Z,4.77
2022-12-02T04:48:57.012Z,4.81
2022-12-02T04:51:25.086Z,4.75
2022-12-02T04:53:52.972Z,4.78
2022-12-02T04:56:20.871Z,4.69
2022-12-02T04:58:48.702Z,4.72
2022-12-02T05:01:16.829Z,4.69
2022-12-02T05:03:44.783Z,4.57
2022-12-02T05:06:12.844Z,4.58
2022-12-02T05:08:41.003Z,4.56
2022-12-02T05:11:09.038Z,4.58
2022-12-02T05:13:37.027Z,4.58
2022-12-02T05:16:05.365Z,4.56
2022-12-02T05:18:33.480Z,4.52
2022-12-02T05:21:01.801Z,4.42
2022-12-02T05:23:30.014Z,4.57
2022-12-02T05:25:57.938Z,4.54
2022-12-02T05:28:25.860Z,4.46
2022-12-02T05:30:53.870Z,4.49
2022-12-02T05:33:21.884Z,4.47
2022-12-02T05:35:49.968Z,4.50
2022-12-02T05:38:17.984Z,4.42
2022-12-02T05:40:46.048Z,4.53
2022-12-02T05:43:25.214Z,4.53
2022-12-02T05:45:58.596Z,4.44
2022-12-02T05:48:35.660Z,4.53
2022-12-02T05:51:10.235Z,4.36
2022-12-02T05:53:40.313Z,4.04
2022-12-02T05:56:18.368Z,3.97
2022-12-02T05:58:46.465Z,3.94
2022-12-02T06:01:31.830Z,4.13
2022-12-02T06:04:00.634Z,4.09
2022-12-02T06:06:30.875Z,3.84
2022-12-02T06:08:58.983Z,4.12
2022-12-02T06:11:35.316Z,4.24
2022-12-02T06:14:11.280Z,4.34
2022-12-02T06:16:41.136Z,4.42
2022-12-02T06:19:24.639Z,4.52
2022-12-02T06:21:53.415Z,4.41
2022-12-02T06:24:31.653Z,4.37
2022-12-02T06:27:02.455Z,4.42
2022-12-02T06:29:32.297Z,4.42
2022-12-02T06:32:01.126Z,4.36
2022-12-02T06:34:32.245Z,4.38
2022-12-02T06:37:09.796Z,4.54
2022-12-02T06:39:58.123Z,4.44
2022-12-02T06:42:36.818Z,4.57
2022-12-02T06:45:28.742Z,4.55
2022-12-02T06:48:10.271Z,4.69
2022-12-02T06:50:43.022Z,4.72
2022-12-02T06:53:33.600Z,4.79
2022-12-02T06:56:12.444Z,4.91
2022-12-02T06:58:47.793Z,4.92
2022-12-02T07:01:20.476Z,4.94
2022-12-02T07:04:00.616Z,4.97
2022-12-02T07:06:30.873Z,5.09
2022-12-02T07:09:02.594Z,5.08
2022-12-02T07:11:50.452Z,5.06
2022-12-02T07:14:43.604Z,5.09
2022-12-02T07:17:31.974Z,5.16
2022-12-02T07:20:11.849Z,5.25
2022-12-02T07:22:45.954Z,5.39
2022-12-02T07:25:16.426Z,5.46
2022-12-02T07:27:50.227Z,5.44
2022-12-02T07:30:29.883Z,5.55
2022-12-02T07:32:59.472Z,5.47
2022-12-02T07:35:28.465Z,5.56
2022-12-02T07:37:58.129Z,5.66
2022-12-02T07:40:28.386Z,5.67
2022-12-02T07:42:56.441Z,5.77
2022-12-02T07:45:24.328Z,5.73
2022-12-02T07:47:53.094Z,5.77
2022-12-02T07:50:21.419Z,5.35
2022-12-02T07:52:49.379Z,5.36
2022-12-02T07:55:26.015Z,5.64
2022-12-02T07:57:54.601Z,5.59
2022-12-02T08:00:23.738Z,5.72
2022-12-02T08:02:52.089Z,5.89
2022-12-02T08:05:20.167Z,5.80
2022-12-02T08:07:48.239Z,5.98
2022-12-02T08:10:17.155Z,6.13
2022-12-02T08:12:45.048Z,6.28
2022-12-02T08:15:14.149Z,6.47
2022-12-02T08:17:42.553Z,6.20
2022-12-02T08:20:12.396Z,6.06
2022-12-02T08:22:40.381Z,6.22
2022-12-02T08:25:08.924Z,6.23
2022-12-02T08:27:44.906Z,6.45
2022-12-02T08:30:15.714Z,6.72
2022-12-02T08:32:43.928Z,6.72
2022-12-02T08:35:13.338Z,6.81
2022-12-02T08:37:41.792Z,6.89
2022-12-02T08:40:10.561Z,6.56
2022-12-02T08:42:38.460Z,6.29
2022-12-02T08:45:07.006Z,6.38
2022-12-02T08:47:34.958Z,6.69
2022-12-02T08:50:04.699Z,6.85
2022-12-02T08:52:32.607Z,6.71
2022-12-02T08:55:00.557Z,6.59
2022-12-02T08:57:28.673Z,6.72
2022-12-02T08:59:56.551Z,7.00
2022-12-02T09:02:24.711Z,7.07
2022-12-02T09:04:53.011Z,7.18
2022-12-02T09:07:21.144Z,7.23
2022-12-02T09:09:49.190Z,6.73
2022-12-02T09:12:17.188Z,6.77
2022-12-02T09:14:45.065Z,6.95
2022-12-02T09:17:13.143Z,7.01
2022-12-02T09:19:41.005Z,7.00
2022-12-02T09:22:08.962Z,7.12
2022-12-02T09:24:36.908Z,7.20
2022-12-02T09:27:04.922Z,7.20
2022-12-02T09:29:34.174Z,7.30
2022-12-02T09:32:02.228Z,7.26
2022-12-02T09:34:30.114Z,7.39
2022-12-02T09:36:58.155Z,7.36
2022-12-02T09:39:26.206Z,7.41
2022-12-02T09:41:54.363Z,7.46
2022-12-02T09:44:22.389Z,7.23
2022-12-02T09:46:50.349Z,7.37
2022-12-02T09:49:18.541Z,7.46
2022-12-02T09:51:46.643Z,7.50
2022-12-02T09:54:17.059Z,7.48
2022-12-02T09:56:45.257Z,7.37
2022-12-02T09:59:16.426Z,7.39
2022-12-02T10:01:47.722Z,7.44
2022-12-02T10:04:22.947Z,7.36
2022-12-02T10:06:50.766Z,7.38
2022-12-02T10:09:22.452Z,7.42
2022-12-02T10:11:50.312Z,7.38
2022-12-02T10:14:18.517Z,7.47
2022-12-02T10:16:46.512Z,7.13
2022-12-02T10:19:20.040Z,6.88
2022-12-02T10:21:52.319Z,6.96
2022-12-02T10:24:38.134Z,7.11
2022-12-02T10:27:06.110Z,7.17
2022-12-02T10:29:35.135Z,7.32
2022-12-02T10:32:04.907Z,7.29
2022-12-02T10:34:35.282Z,7.41
2022-12-02T10:37:25.773Z,7.44
2022-12-02T10:40:08.714Z,7.38
2022-12-02T10:42:36.861Z,7.59
2022-12-02T10:45:22.554Z,7.64
2022-12-02T10:48:11.197Z,7.76
2022-12-02T10:50:39.442Z,7.85
2022-12-02T10:53:15.540Z,7.86
2022-12-02T10:55:45.317Z,7.47
2022-12-02T10:58:17.241Z,7.59
2022-12-02T11:00:45.430Z,7.82
2022-12-02T11:03:13.647Z,7.74
2022-12-02T11:05:42.092Z,7.85
2022-12-02T11:08:29.859Z,8.05
2022-12-02T11:11:27.056Z,8.26
2022-12-02T11:14:03.446Z,8.32
2022-12-02T11:16:43.498Z,8.43
2022-12-02T11:19:41.345Z,8.20
2022-12-02T11:22:46.690Z,8.20
2022-12-02T11:25:42.635Z,8.12
2022-12-02T11:28:29.424Z,7.80
2022-12-02T11:31:12.614Z,7.62
2022-12-02T11:33:43.553Z,7.72
2022-12-02T11:36:18.651Z,7.66
2022-12-02T11:38:48.396Z,7.86
2022-12-02T11:41:18.353Z,7.84
2022-12-02T11:43:46.203Z,7.80
2022-12-02T11:46:20.198Z,7.41
2022-12-02T11:48:54.613Z,7.39
2022-12-02T11:51:33.851Z,7.51
2022-12-02T11:54:02.349Z,7.69
2022-12-02T11:56:38.983Z,7.59
2022-12-02T11:59:30.428Z,7.49
2022-12-02T12:02:27.903Z,7.25
2022-12-02T12:05:08.177Z,7.42
2022-12-02T12:07:45.987Z,7.26
2022-12-02T12:10:29.167Z,7.31
2022-12-02T12:13:17.471Z,7.14
2022-12-02T12:16:02.652Z,7.08
2022-12-02T12:18:44.180Z,7.20
2022-12-02T12:21:14.986Z,7.06
2022-12-02T12:23:45.400Z,7.10
2022-12-02T12:26:35.095Z,7.26
2022-12-02T12:29:05.187Z,7.41
2022-12-02T12:31:38.021Z,7.48
2022-12-02T12:34:07.865Z,7.67
2022-12-02T12:36:36.769Z,7.61
2022-12-02T12:39:06.387Z,7.66
2022-12-02T12:41:59.279Z,7.66
2022-12-02T12:44:28.201Z,7.63
2022-12-02T12:47:00.148Z,7.74
2022-12-02T12:49:28.338Z,7.71
2022-12-02T12:51:56.400Z,7.63
2022-12-02T12:54:24.415Z,7.60
2022-12-02T12:56:52.260Z,7.67
2022-12-02T12:59:20.169Z,7.70
2022-12-02T13:01:48.573Z,7.76
2022-12-02T13:04:16.743Z,7.77
2022-12-02T13:06:47.148Z,7.68
2022-12-02T13:09:15.857Z,7.61
2022-12-02T13:11:44.078Z,7.53
2022-12-02T13:14:12.084Z,7.47
2022-12-02T13:16:40.140Z,7.62
2022-12-02T13:19:08.015Z,7.52
2022-12-02T13:21:35.997Z,7.59
2022-12-02T13:24:05.745Z,7.55
2022-12-02T13:26:33.788Z,7.59
2022-12-02T13:29:01.944Z,7.64
2022-12-02T13:31:30.108Z,7.57
2022-12-02T13:33:58.143Z,7.56
2022-12-02T13:36:26.096Z,7.64
2022-12-02T13:38:54.213Z,7.71
2022-12-02T13:41:22.069Z,7.64
2022-12-02T13:43:50.061Z,7.76
2022-12-02T13:46:18.153Z,7.71
2022-12-02T13:48:46.133Z,7.65
2022-12-02T13:51:14.140Z,7.54
2022-12-02T13:53:43.744Z,7.55
2022-12-02T13:56:12.316Z,7.52
2022-12-02T13:58:40.707Z,7.43
2022-12-02T14:01:08.820Z,7.40
2022-12-02T14:03:37.321Z,7.38
2022-12-02T14:06:05.681Z,7.39
2022-12-02T14:08:33.588Z,7.31
2022-12-02T14:11:01.613Z,7.30
2022-12-02T14:13:29.679Z,7.29
2022-12-02T14:15:57.753Z,7.33
2022-12-02T14:18:25.836Z,7.30
2022-12-02T14:20:53.883Z,7.38
2022-12-02T14:23:22.264Z,7.31
2022-12-02T14:25:52.413Z,7.37
2022-12-02T14:28:20.471Z,7.34
2022-12-02T14:30:48.437Z,7.26
2022-12-02T14:33:16.569Z,7.29
2022-12-02T14:35:44.672Z,7.29
2022-12-02T14:38:12.694Z,7.24
2022-12-02T14:40:40.554Z,7.22
2022-12-02T14:43:14.196Z,7.16
2022-12-02T14:45:42.633Z,7.11
2022-12-02T14:48:10.590Z,7.22
2022-12-02T14:50:38.653Z,7.21
2022-12-02T14:53:07.038Z,7.21
2022-12-02T14:55:35.034Z,7.24
2022-12-02T14:58:02.933Z,7.23
2022-12-02T15:00:31.450Z,7.24
2022-12-02T15:02:59.599Z,7.28
2022-12-02T15:05:27.498Z,7.22
2022-12-02T15:07:55.799Z,7.22
2022-12-02T15:10:23.890Z,7.24
2022-12-02T15:12:51.751Z,7.17
2022-12-02T15:18:07.947Z,7.22
2022-12-02T15:20:35.937Z,7.22
2022-12-02T15:23:03.809Z,7.15
2022-12-02T15:25:31.736Z,7.14
2022-12-02T15:27:59.628Z,7.13
2022-12-02T15:30:27.925Z,7.07
2022-12-02T15:32:55.981Z,7.18
2022-12-02T15:35:24.193Z,7.18
2022-12-02T15:37:52.077Z,7.21
2022-12-02T15:40:20.074Z,7.18
2022-12-02T15:42:48.043Z,7.16
2022-12-02T15:45:16.042Z,7.16
2022-12-02T15:47:43.952Z,7.15
2022-12-02T15:50:11.939Z,7.16
2022-12-02T15:52:39.823Z,7.16
2022-12-02T15:55:08.075Z,7.13
2022-12-02T15:57:36.053Z,7.06
2022-12-02T16:00:07.973Z,7.07
2022-12-02T16:02:36.190Z,7.08
2022-12-02T16:05:04.328Z,7.07
2022-12-02T16:07:32.460Z,7.04
2022-12-02T16:10:00.599Z,7.02
2022-12-02T16:12:28.619Z,7.02
2022-12-02T16:14:59.552Z,7.08
2022-12-02T16:17:28.069Z,6.93
2022-12-02T16:19:55.965Z,6.97
2022-12-02T16:22:24.204Z,6.93
2022-12-02T16:24:52.435Z,6.99
2022-12-02T16:27:20.743Z,6.96
2022-12-02T16:29:48.653Z,6.92
2022-12-02T16:32:20.377Z,7.06
2022-12-02T16:34:48.895Z,7.06
2022-12-02T16:37:20.438Z,7.07
2022-12-02T16:39:48.576Z,7.05
2022-12-02T16:42:17.015Z,7.16
2022-12-02T16:44:45.115Z,6.92
2022-12-02T16:47:13.088Z,6.89
2022-12-02T16:49:41.031Z,6.93
2022-12-02T16:52:09.101Z,6.98
2022-12-02T16:54:37.073Z,6.94
2022-12-02T16:57:05.040Z,6.93
2022-12-02T16:59:33.420Z,6.99
2022-12-02T17:02:01.861Z,6.83
2022-12-02T17:04:30.379Z,7.01
2022-12-02T17:06:58.846Z,7.00
2022-12-02T17:09:27.302Z,6.98
2022-12-02T17:11:55.664Z,6.99
2022-12-02T17:14:24.403Z,6.91
2022-12-02T17:16:53.109Z,6.99
2022-12-02T17:19:21.540Z,6.99
2022-12-02T17:21:50.165Z,6.98
2022-12-02T17:24:18.712Z,7.00
2022-12-02T17:26:51.251Z,6.89
2022-12-02T17:29:22.746Z,7.04
2022-12-02T17:31:51.127Z,7.05
2022-12-02T17:34:19.701Z,7.00
2022-12-02T17:36:48.289Z,6.79
2022-12-02T17:39:19.691Z,6.93
2022-12-02T17:41:48.259Z,7.03
2022-12-02T17:44:17.175Z,7.01
2022-12-02T17:46:45.966Z,7.03
2022-12-02T17:49:14.465Z,7.06
2022-12-02T17:52:00.581Z,7.01
2022-12-02T17:54:31.754Z,6.97
2022-12-02T17:57:00.242Z,7.12
2022-12-02T17:59:28.642Z,7.12
2022-12-02T18:01:57.456Z,7.14
2022-12-02T18:04:26.199Z,7.13
2022-12-02T18:06:54.886Z,7.08
2022-12-02T18:09:23.415Z,7.04
2022-12-02T18:11:51.855Z,7.05
2022-12-02T18:14:20.216Z,7.12
2022-12-02T18:16:48.869Z,6.98
2022-12-02T18:19:17.381Z,7.04
2022-12-02T18:21:45.767Z,6.99
2022-12-02T18:24:14.385Z,6.93
2022-12-02T18:26:42.868Z,6.96
2022-12-02T18:29:11.219Z,6.98
2022-12-02T18:31:39.904Z,6.98
2022-12-02T18:34:08.514Z,7.05
2022-12-02T18:36:37.065Z,7.06
2022-12-02T18:39:05.541Z,7.10
2022-12-02T18:41:33.977Z,7.12
2022-12-02T18:44:02.570Z,7.13
2022-12-02T18:46:31.084Z,7.18
2022-12-02T18:48:59.616Z,7.15
2022-12-02T18:51:29.329Z,7.18
2022-12-02T18:53:57.833Z,7.17
2022-12-02T18:56:26.193Z,7.18
2022-12-02T18:58:54.615Z,7.15
2022-12-02T19:01:23.373Z,7.16
2022-12-02T19:03:52.004Z,7.07
2022-12-02T19:06:20.453Z,7.07
2022-12-02T19:08:48.977Z,7.06
2022-12-02T19:11:17.535Z,7.10
2022-12-02T19:13:46.017Z,7.11
2022-12-02T19:16:14.474Z,7.07
2022-12-02T19:18:43.001Z,7.12
2022-12-02T19:21:11.480Z,7.19
2022-12-02T19:23:44.255Z,7.17
2022-12-02T19:26:13.768Z,7.15
2022-12-02T19:28:42.365Z,7.14
2022-12-02T19:31:11.031Z,7.14
2022-12-02T19:33:39.250Z,7.16
2022-12-02T19:36:08.182Z,7.01
2022-12-02T19:38:36.730Z,7.08
2022-12-02T19:41:05.469Z,7.02
2022-12-02T19:43:35.906Z,7.04
2022-12-02T19:46:05.488Z,6.90
2022-12-02T19:48:33.876Z,6.94
2022-12-02T19:51:02.547Z,6.70
2022-12-02T19:53:31.375Z,6.53
2022-12-02T19:55:59.993Z,6.25
2022-12-02T19:58:28.552Z,5.96
2022-12-02T20:00:58.146Z,5.96
2022-12-02T20:03:26.885Z,5.86
2022-12-02T20:05:55.262Z,5.84
2022-12-02T20:08:23.766Z,5.73
2022-12-02T20:10:52.291Z,5.68
2022-12-02T20:13:20.800Z,5.61
2022-12-02T20:15:53.410Z,5.50
2022-12-02T20:18:25.466Z,5.44
2022-12-02T20:20:54.047Z,5.45
2022-12-02T20:23:23.636Z,5.31
2022-12-02T20:25:55.451Z,5.38
2022-12-02T20:28:23.857Z,5.29
2022-12-02T20:30:52.315Z,5.20
2022-12-02T20:33:20.968Z,5.20
2022-12-02T20:35:49.460Z,5.24
2022-12-02T20:38:20.993Z,5.36
2022-12-02T20:40:49.537Z,5.52
2022-12-02T20:43:18.340Z,5.73
2022-12-02T20:45:47.203Z,5.86
2022-12-02T20:48:16.195Z,5.73
2022-12-02T20:50:45.337Z,5.74
2022-12-02T20:53:13.749Z,5.83
2022-12-02T20:55:42.136Z,5.94
2022-12-02T20:58:10.524Z,6.01
2022-12-02T21:00:39.118Z,6.16
2022-12-02T21:03:07.677Z,6.25
2022-12-02T21:05:36.779Z,6.24
2022-12-02T21:08:05.062Z,6.23
2022-12-02T21:10:33.895Z,6.18
2022-12-02T21:13:05.344Z,5.93
2022-12-02T21:15:37.091Z,5.64
2022-12-02T21:18:05.764Z,5.65
2022-12-02T21:20:35.433Z,5.62
2022-12-02T21:23:05.328Z,5.70
2022-12-02T21:25:33.855Z,5.54
2022-12-02T21:28:02.416Z,5.65
2022-12-02T21:30:31.470Z,5.40
2022-12-02T21:32:59.372Z,5.46
2022-12-02T21:35:27.615Z,5.26
2022-12-02T21:37:56.035Z,5.29
2022-12-02T21:40:24.108Z,5.24
2022-12-02T21:42:52.343Z,5.35
2022-12-02T21:45:20.653Z,5.38
2022-12-02T21:47:48.711Z,5.41
2022-12-02T21:50:17.920Z,5.53
2022-12-02T21:52:45.997Z,5.38
2022-12-02T21:55:14.084Z,5.19
2022-12-02T21:57:42.329Z,5.07
2022-12-02T22:00:14.871Z,5.04
2022-12-02T22:02:43.334Z,5.11
2022-12-02T22:05:11.762Z,5.01
2022-12-02T22:07:48.083Z,5.00
2022-12-02T22:10:20.865Z,5.00
2022-12-02T22:12:50.745Z,4.95
2022-12-02T22:15:22.181Z,4.96
2022-12-02T22:17:50.380Z,4.97
2022-12-02T22:20:18.703Z,4.93
2022-12-02T22:22:47.151Z,4.87
2022-12-02T22:25:15.419Z,4.83
2022-12-02T22:27:43.399Z,5.09
2022-12-02T22:30:12.373Z,5.18
2022-12-02T22:32:40.282Z,5.11
2022-12-02T22:35:09.210Z,5.15
2022-12-02T22:37:37.185Z,5.19
2022-12-02T22:40:06.422Z,5.21
2022-12-02T22:42:34.574Z,5.16
2022-12-02T22:45:02.484Z,4.99
2022-12-02T22:47:31.081Z,4.93
2022-12-02T22:49:59.080Z,4.98
2022-12-02T22:52:27.245Z,4.99
2022-12-02T22:54:55.509Z,4.94
2022-12-02T22:57:23.778Z,5.09
2022-12-02T22:59:51.734Z,5.27
2022-12-02T23:02:19.803Z,5.21
2022-12-02T23:04:47.835Z,4.96
2022-12-02T23:07:15.793Z,4.70
2022-12-02T23:09:43.764Z,4.61
2022-12-02T23:12:11.724Z,4.62
2022-12-02T23:14:39.723Z,4.30
2022-12-02T23:17:07.778Z,4.31
2022-12-02T23:19:35.966Z,4.26
2022-12-02T23:22:04.029Z,4.22
2022-12-02T23:24:32.093Z,4.08
2022-12-02T23:26:59.914Z,4.08
2022-12-02T23:29:28.144Z,4.18
2022-12-02T23:31:56.047Z,4.08
2022-12-02T23:34:24.039Z,4.13
2022-12-02T23:36:52.117Z,4.41
2022-12-02T23:39:20.104Z,4.38
2022-12-02T23:41:47.929Z,4.67
2022-12-02T23:44:16.374Z,4.80
2022-12-02T23:46:44.344Z,4.63
2022-12-02T23:49:12.541Z,4.86
2022-12-02T23:51:40.422Z,4.86
2022-12-02T23:54:08.515Z,4.90
2022-12-02T23:56:36.403Z,5.05
2022-12-02T23:59:04.425Z,5.23
